Edgegrove, Pennsylvania
Current Conditions -  °F | °C
As of 3:37 PM on Wednesday 26 Nov 2014 (Local Time) from KTHV Reporting Station
Light Snow Light Snow  
Wind Chill: 27°   Ceiling: 400
Heat Index: 33°   Visibility: 1mi
Dew Point: 32°   Wind: 7mph
Humidity: 96%   Direction: 300°WNW
Pressure: 29.93"   Gusts: NA
Location:  39.7863°N, 76.988°W
Report Text: KTHV 262037Z AUTO 30006KT 1SM -SN BR BKN004 OVC011 01/00 A2993 RMK AO2 P0002 T00060000
Loading
Personal Weather Stations






























Interactive Weather Map New forecast layout! Learn more

10-Day Weather Forecast

Advertisements
Track Severe Weather on mobile